sensor_id;sensor_type;location;lat;lon;timestamp;pressure;altitude;pressure_sealevel;temperature;humidity
13836;BME280;6988;52.614;13.500;2023-05-29T00:01:13;53980.97;;;-143.77;60.40
13836;BME280;6988;52.614;13.500;2023-05-29T00:06:09;53999.44;;;-143.77;60.32
13836;BME280;6988;52.614;13.500;2023-05-29T00:11:02;53970.72;;;-143.77;60.48
13836;BME280;6988;52.614;13.500;2023-05-29T00:15:54;53974.81;;;-143.77;60.70
13836;BME280;6988;52.614;13.500;2023-05-29T00:20:49;53980.97;;;-143.77;60.57
13836;BME280;6988;52.614;13.500;2023-05-29T00:25:40;53995.31;;;-143.77;60.96
13836;BME280;6988;52.614;13.500;2023-05-29T00:30:32;53978.91;;;-143.77;60.83
13836;BME280;6988;52.614;13.500;2023-05-29T00:35:24;54019.94;;;-143.77;61.72
13836;BME280;6988;52.614;13.500;2023-05-29T00:40:17;53983.00;;;-143.77;61.84
13836;BME280;6988;52.614;13.500;2023-05-29T00:45:10;54011.75;;;-143.77;62.05
13836;BME280;6988;52.614;13.500;2023-05-29T00:50:06;53987.13;;;-143.77;61.73
13836;BME280;6988;52.614;13.500;2023-05-29T00:54:59;54044.56;;;-143.77;61.99
13836;BME280;6988;52.614;13.500;2023-05-29T00:59:55;54056.88;;;-143.77;62.02
13836;BME280;6988;52.614;13.500;2023-05-29T01:04:48;54013.78;;;-143.77;62.03
13836;BME280;6988;52.614;13.500;2023-05-29T01:09:40;54028.16;;;-143.77;62.45
13836;BME280;6988;52.614;13.500;2023-05-29T01:14:57;53989.16;;;-143.77;62.96
13836;BME280;6988;52.614;13.500;2023-05-29T01:20:10;54024.06;;;-143.77;62.96
13836;BME280;6988;52.614;13.500;2023-05-29T01:25:13;54030.22;;;-143.77;62.96
13836;BME280;6988;52.614;13.500;2023-05-29T01:30:11;53993.28;;;-143.77;63.29
13836;BME280;6988;52.614;13.500;2023-05-29T01:35:06;54015.84;;;-143.77;63.60
13836;BME280;6988;52.614;13.500;2023-05-29T01:39:59;54032.25;;;-143.77;63.74
13836;BME280;6988;52.614;13.500;2023-05-29T01:44:52;54044.56;;;-143.77;63.92
13836;BME280;6988;52.614;13.500;2023-05-29T01:49:49;54017.91;;;-143.77;63.71
13836;BME280;6988;52.614;13.500;2023-05-29T01:54:41;54052.78;;;-143.77;63.89
13836;BME280;6988;52.614;13.500;2023-05-29T01:59:34;54052.78;;;-143.77;63.86
13836;BME280;6988;52.614;13.500;2023-05-29T02:04:26;54077.41;;;-143.77;64.10
13836;BME280;6988;52.614;13.500;2023-05-29T02:09:21;54052.78;;;-143.77;64.30
13836;BME280;6988;52.614;13.500;2023-05-29T02:14:13;54044.56;;;-143.77;64.16
13836;BME280;6988;52.614;13.500;2023-05-29T02:19:07;54028.16;;;-143.77;64.21
13836;BME280;6988;52.614;13.500;2023-05-29T02:23:58;54036.38;;;-143.77;64.45
13836;BME280;6988;52.614;13.500;2023-05-29T02:28:51;54071.25;;;-143.77;64.97
13836;BME280;6988;52.614;13.500;2023-05-29T02:33:44;54026.09;;;-143.77;64.78
13836;BME280;6988;52.614;13.500;2023-05-29T02:38:36;54046.63;;;-143.77;64.80
13836;BME280;6988;52.614;13.500;2023-05-29T02:43:28;54019.94;;;-143.77;65.05
13836;BME280;6988;52.614;13.500;2023-05-29T02:48:21;54042.50;;;-143.77;65.14
13836;BME280;6988;52.614;13.500;2023-05-29T02:53:13;54052.78;;;-143.77;65.88
13836;BME280;6988;52.614;13.500;2023-05-29T03:02:59;54081.50;;;-143.77;65.94
13836;BME280;6988;52.614;13.500;2023-05-29T03:07:52;54060.97;;;-143.77;66.23
13836;BME280;6988;52.614;13.500;2023-05-29T03:12:45;54085.59;;;-143.77;66.55
13836;BME280;6988;52.614;13.500;2023-05-29T03:17:37;54060.97;;;-143.77;66.43
13836;BME280;6988;52.614;13.500;2023-05-29T03:22:34;54099.97;;;-143.77;66.54
13836;BME280;6988;52.614;13.500;2023-05-29T03:27:28;54102.00;;;-143.77;66.65
13836;BME280;6988;52.614;13.500;2023-05-29T03:32:26;54091.75;;;-143.77;66.65
13836;BME280;6988;52.614;13.500;2023-05-29T03:37:18;54089.72;;;-143.77;66.12
13836;BME280;6988;52.614;13.500;2023-05-29T03:42:11;54149.22;;;-143.77;66.56
13836;BME280;6988;52.614;13.500;2023-05-29T03:47:05;54083.56;;;-143.77;66.76
13836;BME280;6988;52.614;13.500;2023-05-29T03:52:00;54067.13;;;-143.77;66.83
13836;BME280;6988;52.614;13.500;2023-05-29T03:56:51;54071.25;;;-143.77;66.89
13836;BME280;6988;52.614;13.500;2023-05-29T04:01:43;54081.50;;;-143.77;66.57
13836;BME280;6988;52.614;13.500;2023-05-29T04:06:36;54024.06;;;-143.77;66.41
13836;BME280;6988;52.614;13.500;2023-05-29T04:11:29;54065.09;;;-143.77;66.47
13836;BME280;6988;52.614;13.500;2023-05-29T04:16:24;54036.38;;;-143.77;66.54
13836;BME280;6988;52.614;13.500;2023-05-29T04:21:16;54024.06;;;-143.77;66.83
13836;BME280;6988;52.614;13.500;2023-05-29T04:26:09;54022.00;;;-143.77;66.18
13836;BME280;6988;52.614;13.500;2023-05-29T04:31:03;54003.53;;;-143.77;65.98
13836;BME280;6988;52.614;13.500;2023-05-29T04:35:56;54042.50;;;-143.77;65.87
13836;BME280;6988;52.614;13.500;2023-05-29T04:40:48;54015.84;;;-143.77;65.37
13836;BME280;6988;52.614;13.500;2023-05-29T04:45:44;53966.59;;;-143.77;65.23
13836;BME280;6988;52.614;13.500;2023-05-29T04:50:36;53991.22;;;-143.77;64.88
13836;BME280;6988;52.614;13.500;2023-05-29T04:55:30;54005.59;;;-143.77;64.11
13836;BME280;6988;52.614;13.500;2023-05-29T05:00:22;54024.06;;;-143.77;63.90
13836;BME280;6988;52.614;13.500;2023-05-29T05:05:15;54007.63;;;-143.77;63.85
13836;BME280;6988;52.614;13.500;2023-05-29T05:10:08;53991.22;;;-143.77;63.47
13836;BME280;6988;52.614;13.500;2023-05-29T05:15:00;53995.31;;;-143.77;62.98
13836;BME280;6988;52.614;13.500;2023-05-29T05:19:53;53962.50;;;-143.77;62.68
13836;BME280;6988;52.614;13.500;2023-05-29T05:24:46;53935.84;;;-143.77;62.49
13836;BME280;6988;52.614;13.500;2023-05-29T05:29:38;53983.00;;;-143.77;62.08
13836;BME280;6988;52.614;13.500;2023-05-29T05:34:30;53958.41;;;-143.77;61.13
13836;BME280;6988;52.614;13.500;2023-05-29T05:39:22;53931.72;;;-143.77;60.81
13836;BME280;6988;52.614;13.500;2023-05-29T05:44:15;53937.88;;;-143.77;60.01
13836;BME280;6988;52.614;13.500;2023-05-29T05:49:10;53925.56;;;-143.77;60.36
13836;BME280;6988;52.614;13.500;2023-05-29T05:54:05;53933.78;;;-143.77;60.05
13836;BME280;6988;52.614;13.500;2023-05-29T05:58:57;53909.16;;;-143.77;59.84
13836;BME280;6988;52.614;13.500;2023-05-29T06:03:50;53898.91;;;-143.77;59.47
13836;BME280;6988;52.614;13.500;2023-05-29T06:08:42;53905.06;;;-143.77;57.36
13836;BME280;6988;52.614;13.500;2023-05-29T06:13:35;53878.38;;;-143.77;55.34
13836;BME280;6988;52.614;13.500;2023-05-29T06:18:34;53847.59;;;-143.77;55.33
13836;BME280;6988;52.614;13.500;2023-05-29T06:23:28;53802.47;;;-143.77;55.02
13836;BME280;6988;52.614;13.500;2023-05-29T06:28:21;53720.41;;;-143.77;51.21
13836;BME280;6988;52.614;13.500;2023-05-29T06:33:13;53648.59;;;-143.77;49.13
13836;BME280;6988;52.614;13.500;2023-05-29T06:38:07;53634.25;;;-143.77;48.77
13836;BME280;6988;52.614;13.500;2023-05-29T06:43:00;53580.91;;;-143.77;47.52
13836;BME280;6988;52.614;13.500;2023-05-29T06:48:10;53646.56;;;-143.77;45.31
13836;BME280;6988;52.614;13.500;2023-05-29T06:53:03;53613.72;;;-143.77;45.79
13836;BME280;6988;52.614;13.500;2023-05-29T06:58:13;53509.09;;;-143.77;45.76
13836;BME280;6988;52.614;13.500;2023-05-29T07:03:06;53613.72;;;-143.77;45.02
13836;BME280;6988;52.614;13.500;2023-05-29T07:07:58;53537.84;;;-143.77;44.17
13836;BME280;6988;52.614;13.500;2023-05-29T07:12:51;53443.47;;;-143.77;43.78
13836;BME280;6988;52.614;13.500;2023-05-29T07:17:44;53439.38;;;-143.77;42.71
13836;BME280;6988;52.614;13.500;2023-05-29T07:22:43;53570.66;;;-143.77;41.48
13836;BME280;6988;52.614;13.500;2023-05-29T07:27:35;53539.88;;;-143.77;41.92
13836;BME280;6988;52.614;13.500;2023-05-29T07:32:27;53375.78;;;-143.77;42.16
13836;BME280;6988;52.614;13.500;2023-05-29T07:37:21;53533.72;;;-143.77;41.22
13836;BME280;6988;52.614;13.500;2023-05-29T07:42:13;53379.88;;;-143.77;41.47
13836;BME280;6988;52.614;13.500;2023-05-29T07:47:07;53359.34;;;-143.77;41.60
13836;BME280;6988;52.614;13.500;2023-05-29T07:52:04;53328.59;;;-143.77;41.21
13836;BME280;6988;52.614;13.500;2023-05-29T07:56:58;53332.69;;;-143.77;40.77
13836;BME280;6988;52.614;13.500;2023-05-29T08:01:50;53277.31;;;-143.77;39.20
13836;BME280;6988;52.614;13.500;2023-05-29T08:07:05;53242.44;;;-143.77;39.18
13836;BME280;6988;52.614;13.500;2023-05-29T08:11:58;53254.75;;;-143.77;39.29
13836;BME280;6988;52.614;13.500;2023-05-29T08:16:51;53232.19;;;-143.77;37.26
13836;BME280;6988;52.614;13.500;2023-05-29T08:21:43;53199.34;;;-143.77;36.43
13836;BME280;6988;52.614;13.500;2023-05-29T08:26:35;53205.50;;;-143.77;37.02
13836;BME280;6988;52.614;13.500;2023-05-29T08:31:30;53154.22;;;-143.77;36.56
13836;BME280;6988;52.614;13.500;2023-05-29T08:36:22;53187.06;;;-143.77;36.32
13836;BME280;6988;52.614;13.500;2023-05-29T08:41:21;53152.19;;;-143.77;36.99
13836;BME280;6988;52.614;13.500;2023-05-29T08:46:17;53111.16;;;-143.77;36.56
13836;BME280;6988;52.614;13.500;2023-05-29T08:51:10;53137.81;;;-143.77;35.56
13836;BME280;6988;52.614;13.500;2023-05-29T08:56:03;53109.09;;;-143.77;34.60
13836;BME280;6988;52.614;13.500;2023-05-29T09:00:55;53100.91;;;-143.77;35.03
13836;BME280;6988;52.614;13.500;2023-05-29T09:05:48;53324.50;;;-143.77;34.85
13836;BME280;6988;52.614;13.500;2023-05-29T09:10:42;53078.34;;;-143.77;35.23
13836;BME280;6988;52.614;13.500;2023-05-29T09:15:35;53053.72;;;-143.77;35.03
13836;BME280;6988;52.614;13.500;2023-05-29T09:20:29;53006.53;;;-143.77;34.25
13836;BME280;6988;52.614;13.500;2023-05-29T09:25:23;53014.75;;;-143.77;35.00
13836;BME280;6988;52.614;13.500;2023-05-29T09:30:32;53100.91;;;-143.77;33.47
13836;BME280;6988;52.614;13.500;2023-05-29T09:35:24;52951.16;;;-143.77;33.02
13836;BME280;6988;52.614;13.500;2023-05-29T09:40:16;52924.50;;;-143.77;32.69
13836;BME280;6988;52.614;13.500;2023-05-29T09:45:09;53045.50;;;-143.77;32.76
13836;BME280;6988;52.614;13.500;2023-05-29T09:50:03;52893.72;;;-143.77;32.67
13836;BME280;6988;52.614;13.500;2023-05-29T09:54:56;53174.75;;;-143.77;31.94
13836;BME280;6988;52.614;13.500;2023-05-29T09:59:50;52926.56;;;-143.77;32.46
13836;BME280;6988;52.614;13.500;2023-05-29T10:04:44;52922.44;;;-143.77;31.98
13836;BME280;6988;52.614;13.500;2023-05-29T10:09:42;52973.72;;;-143.77;32.22
13836;BME280;6988;52.614;13.500;2023-05-29T10:14:42;52963.47;;;-143.77;32.19
13836;BME280;6988;52.614;13.500;2023-05-29T10:19:38;53166.53;;;-143.77;31.91
13836;BME280;6988;52.614;13.500;2023-05-29T10:24:32;53219.88;;;-143.77;32.60
13836;BME280;6988;52.614;13.500;2023-05-29T10:29:33;53269.09;;;-143.77;32.95
13836;BME280;6988;52.614;13.500;2023-05-29T10:34:34;53014.75;;;-143.77;33.27
13836;BME280;6988;52.614;13.500;2023-05-29T10:39:29;53230.13;;;-143.77;33.38
13836;BME280;6988;52.614;13.500;2023-05-29T10:44:41;53109.09;;;-143.77;33.20
13836;BME280;6988;52.614;13.500;2023-05-29T10:49:32;53018.84;;;-143.77;32.40
13836;BME280;6988;52.614;13.500;2023-05-29T10:54:26;52957.31;;;-143.77;32.10
13836;BME280;6988;52.614;13.500;2023-05-29T10:59:18;52871.16;;;-143.77;31.80
13836;BME280;6988;52.614;13.500;2023-05-29T11:04:27;53063.97;;;-143.77;30.92
13836;BME280;6988;52.614;13.500;2023-05-29T11:09:30;53133.72;;;-143.77;31.75
13836;BME280;6988;52.614;13.500;2023-05-29T11:14:22;53193.19;;;-143.77;32.34
13836;BME280;6988;52.614;13.500;2023-05-29T11:19:14;52949.13;;;-143.77;31.43
13836;BME280;6988;52.614;13.500;2023-05-29T11:24:14;53150.13;;;-143.77;31.90
13836;BME280;6988;52.614;13.500;2023-05-29T11:29:10;53207.56;;;-143.77;33.20
13836;BME280;6988;52.614;13.500;2023-05-29T11:34:03;53234.22;;;-143.77;33.30
13836;BME280;6988;52.614;13.500;2023-05-29T11:38:56;53213.72;;;-143.77;33.19
13836;BME280;6988;52.614;13.500;2023-05-29T11:44:01;53223.97;;;-143.77;33.30
13836;BME280;6988;52.614;13.500;2023-05-29T11:48:53;53240.38;;;-143.77;33.87
13836;BME280;6988;52.614;13.500;2023-05-29T11:53:47;53035.25;;;-143.77;33.29
13836;BME280;6988;52.614;13.500;2023-05-29T11:58:40;52979.88;;;-143.77;32.40
13836;BME280;6988;52.614;13.500;2023-05-29T12:03:39;52940.91;;;-143.77;32.87
13836;BME280;6988;52.614;13.500;2023-05-29T12:08:31;52967.56;;;-143.77;31.90
13836;BME280;6988;52.614;13.500;2023-05-29T12:13:23;52906.03;;;-143.77;30.89
13836;BME280;6988;52.614;13.500;2023-05-29T12:18:15;52904.00;;;-143.77;30.59
13836;BME280;6988;52.614;13.500;2023-05-29T12:23:08;52922.44;;;-143.77;31.35
13836;BME280;6988;52.614;13.500;2023-05-29T12:28:02;53088.59;;;-143.77;31.25
13836;BME280;6988;52.614;13.500;2023-05-29T12:32:54;53117.31;;;-143.77;31.79
13836;BME280;6988;52.614;13.500;2023-05-29T12:37:48;53061.94;;;-143.77;32.64
13836;BME280;6988;52.614;13.500;2023-05-29T12:42:42;52998.34;;;-143.77;32.70
13836;BME280;6988;52.614;13.500;2023-05-29T12:47:34;53031.16;;;-143.77;31.71
13836;BME280;6988;52.614;13.500;2023-05-29T12:52:26;52977.81;;;-143.77;31.56
13836;BME280;6988;52.614;13.500;2023-05-29T12:57:17;52977.81;;;-143.77;31.29
13836;BME280;6988;52.614;13.500;2023-05-29T13:02:11;52942.97;;;-143.77;31.28
13836;BME280;6988;52.614;13.500;2023-05-29T13:07:04;52930.66;;;-143.77;31.85
13836;BME280;6988;52.614;13.500;2023-05-29T13:11:56;52924.50;;;-143.77;31.30
13836;BME280;6988;52.614;13.500;2023-05-29T13:16:48;52885.53;;;-143.77;30.84
13836;BME280;6988;52.614;13.500;2023-05-29T13:21:41;52955.25;;;-143.77;30.83
13836;BME280;6988;52.614;13.500;2023-05-29T13:26:38;52945.00;;;-143.77;31.12
13836;BME280;6988;52.614;13.500;2023-05-29T13:31:30;52971.69;;;-143.77;31.44
13836;BME280;6988;52.614;13.500;2023-05-29T13:36:22;52940.91;;;-143.77;30.49
13836;BME280;6988;52.614;13.500;2023-05-29T13:41:15;52949.13;;;-143.77;30.84
13836;BME280;6988;52.614;13.500;2023-05-29T13:46:06;52998.34;;;-143.77;30.67
13836;BME280;6988;52.614;13.500;2023-05-29T13:50:58;52914.25;;;-143.77;29.93
13836;BME280;6988;52.614;13.500;2023-05-29T13:55:50;52904.00;;;-143.77;30.61
13836;BME280;6988;52.614;13.500;2023-05-29T14:00:43;52904.00;;;-143.77;29.81
13836;BME280;6988;52.614;13.500;2023-05-29T14:05:35;52934.75;;;-143.77;29.87
13836;BME280;6988;52.614;13.500;2023-05-29T14:10:27;52957.31;;;-143.77;30.00
13836;BME280;6988;52.614;13.500;2023-05-29T14:15:19;53006.53;;;-143.77;30.08
13836;BME280;6988;52.614;13.500;2023-05-29T14:20:12;52975.78;;;-143.77;30.56
13836;BME280;6988;52.614;13.500;2023-05-29T14:25:04;52986.03;;;-143.77;30.46
13836;BME280;6988;52.614;13.500;2023-05-29T14:29:56;53008.59;;;-143.77;30.71
13836;BME280;6988;52.614;13.500;2023-05-29T14:34:48;52988.09;;;-143.77;30.21
13836;BME280;6988;52.614;13.500;2023-05-29T14:39:41;53002.44;;;-143.77;30.64
13836;BME280;6988;52.614;13.500;2023-05-29T14:44:33;52979.88;;;-143.77;29.84
13836;BME280;6988;52.614;13.500;2023-05-29T14:49:25;53006.53;;;-143.77;30.28
13836;BME280;6988;52.614;13.500;2023-05-29T14:54:20;53043.47;;;-143.77;30.78
13836;BME280;6988;52.614;13.500;2023-05-29T14:59:13;53037.31;;;-143.77;31.22
13836;BME280;6988;52.614;13.500;2023-05-29T15:04:05;53092.69;;;-143.77;31.34
13836;BME280;6988;52.614;13.500;2023-05-29T15:08:57;53115.25;;;-143.77;30.74
13836;BME280;6988;52.614;13.500;2023-05-29T15:13:50;53080.38;;;-143.77;31.78
13836;BME280;6988;52.614;13.500;2023-05-29T15:18:43;53111.16;;;-143.77;31.08
13836;BME280;6988;52.614;13.500;2023-05-29T15:23:35;53135.78;;;-143.77;30.98
13836;BME280;6988;52.614;13.500;2023-05-29T15:28:29;53150.13;;;-143.77;32.14
13836;BME280;6988;52.614;13.500;2023-05-29T15:33:21;53137.81;;;-143.77;31.34
13836;BME280;6988;52.614;13.500;2023-05-29T15:38:15;53141.91;;;-143.77;32.03
13836;BME280;6988;52.614;13.500;2023-05-29T15:43:08;53162.44;;;-143.77;32.05
13836;BME280;6988;52.614;13.500;2023-05-29T15:47:59;53146.03;;;-143.77;32.39
13836;BME280;6988;52.614;13.500;2023-05-29T15:52:51;53162.44;;;-143.77;32.46
13836;BME280;6988;52.614;13.500;2023-05-29T15:57:45;53215.78;;;-143.77;32.10
13836;BME280;6988;52.614;13.500;2023-05-29T16:02:39;53166.53;;;-143.77;32.51
13836;BME280;6988;52.614;13.500;2023-05-29T16:07:31;53275.25;;;-143.77;32.53
13836;BME280;6988;52.614;13.500;2023-05-29T16:12:22;53306.03;;;-143.77;33.47
13836;BME280;6988;52.614;13.500;2023-05-29T16:17:16;53277.31;;;-143.77;33.57
13836;BME280;6988;52.614;13.500;2023-05-29T16:22:08;53322.44;;;-143.77;33.93
13836;BME280;6988;52.614;13.500;2023-05-29T16:27:01;53334.75;;;-143.77;33.94
13836;BME280;6988;52.614;13.500;2023-05-29T16:31:54;53340.91;;;-143.77;33.84
13836;BME280;6988;52.614;13.500;2023-05-29T16:36:47;53318.34;;;-143.77;34.09
13836;BME280;6988;52.614;13.500;2023-05-29T16:41:39;53363.47;;;-143.77;33.92
13836;BME280;6988;52.614;13.500;2023-05-29T16:46:31;53383.97;;;-143.77;34.28
13836;BME280;6988;52.614;13.500;2023-05-29T16:51:23;53383.97;;;-143.77;33.87
13836;BME280;6988;52.614;13.500;2023-05-29T16:56:17;53410.66;;;-143.77;33.91
13836;BME280;6988;52.614;13.500;2023-05-29T17:01:09;53410.66;;;-143.77;33.72
13836;BME280;6988;52.614;13.500;2023-05-29T17:06:01;53427.06;;;-143.77;33.48
13836;BME280;6988;52.614;13.500;2023-05-29T17:10:53;53437.31;;;-143.77;33.37
13836;BME280;6988;52.614;13.500;2023-05-29T17:15:46;53443.47;;;-143.77;34.05
13836;BME280;6988;52.614;13.500;2023-05-29T17:20:38;53445.50;;;-143.77;33.47
13836;BME280;6988;52.614;13.500;2023-05-29T17:25:30;53445.50;;;-143.77;33.66
13836;BME280;6988;52.614;13.500;2023-05-29T17:30:22;53461.94;;;-143.77;33.81
13836;BME280;6988;52.614;13.500;2023-05-29T17:35:16;53500.91;;;-143.77;34.24
13836;BME280;6988;52.614;13.500;2023-05-29T17:40:11;53470.13;;;-143.77;34.46
13836;BME280;6988;52.614;13.500;2023-05-29T17:45:04;53515.25;;;-143.77;35.09
13836;BME280;6988;52.614;13.500;2023-05-29T17:49:58;53531.69;;;-143.77;37.57
13836;BME280;6988;52.614;13.500;2023-05-29T17:54:51;53543.97;;;-143.77;38.92
13836;BME280;6988;52.614;13.500;2023-05-29T17:59:43;53572.72;;;-143.77;39.17
13836;BME280;6988;52.614;13.500;2023-05-29T18:04:35;53585.00;;;-143.77;40.64
13836;BME280;6988;52.614;13.500;2023-05-29T18:09:27;53638.34;;;-143.77;40.64
13836;BME280;6988;52.614;13.500;2023-05-29T18:14:20;53634.25;;;-143.77;40.19
13836;BME280;6988;52.614;13.500;2023-05-29T18:19:13;53636.31;;;-143.77;41.34
13836;BME280;6988;52.614;13.500;2023-05-29T18:24:06;53671.19;;;-143.77;41.93
13836;BME280;6988;52.614;13.500;2023-05-29T18:28:58;53699.91;;;-143.77;42.16
13836;BME280;6988;52.614;13.500;2023-05-29T18:33:53;53704.00;;;-143.77;41.75
13836;BME280;6988;52.614;13.500;2023-05-29T18:38:45;53706.06;;;-143.77;40.75
13836;BME280;6988;52.614;13.500;2023-05-29T18:43:37;53712.22;;;-143.77;41.38
13836;BME280;6988;52.614;13.500;2023-05-29T18:48:30;53736.81;;;-143.77;41.32
13836;BME280;6988;52.614;13.500;2023-05-29T18:53:23;53759.41;;;-143.77;41.65
13836;BME280;6988;52.614;13.500;2023-05-29T18:58:15;53745.03;;;-143.77;42.74
13836;BME280;6988;52.614;13.500;2023-05-29T19:03:07;53759.41;;;-143.77;44.55
13836;BME280;6988;52.614;13.500;2023-05-29T19:07:59;53781.97;;;-143.77;43.80
13836;BME280;6988;52.614;13.500;2023-05-29T19:12:56;53786.06;;;-143.77;42.25
13836;BME280;6988;52.614;13.500;2023-05-29T19:17:48;53786.06;;;-143.77;43.56
13836;BME280;6988;52.614;13.500;2023-05-29T19:22:40;53781.97;;;-143.77;42.91
13836;BME280;6988;52.614;13.500;2023-05-29T19:27:32;53800.41;;;-143.77;45.09
13836;BME280;6988;52.614;13.500;2023-05-29T19:32:25;53835.31;;;-143.77;44.54
13836;BME280;6988;52.614;13.500;2023-05-29T19:37:18;53841.44;;;-143.77;45.00
13836;BME280;6988;52.614;13.500;2023-05-29T19:42:10;53818.88;;;-143.77;44.18
13836;BME280;6988;52.614;13.500;2023-05-29T19:47:02;53804.53;;;-143.77;43.32
13836;BME280;6988;52.614;13.500;2023-05-29T19:51:55;53827.09;;;-143.77;43.51
13836;BME280;6988;52.614;13.500;2023-05-29T19:56:48;53857.88;;;-143.77;43.72
13836;BME280;6988;52.614;13.500;2023-05-29T20:01:41;53878.38;;;-143.77;44.52
13836;BME280;6988;52.614;13.500;2023-05-29T20:06:34;53841.44;;;-143.77;45.11
13836;BME280;6988;52.614;13.500;2023-05-29T20:11:28;53859.91;;;-143.77;45.45
13836;BME280;6988;52.614;13.500;2023-05-29T20:16:20;53831.19;;;-143.77;43.93
13836;BME280;6988;52.614;13.500;2023-05-29T20:21:12;53855.81;;;-143.77;44.48
13836;BME280;6988;52.614;13.500;2023-05-29T20:26:04;53864.03;;;-143.77;44.12
13836;BME280;6988;52.614;13.500;2023-05-29T20:30:57;53839.41;;;-143.77;44.27
13836;BME280;6988;52.614;13.500;2023-05-29T20:35:49;53888.63;;;-143.77;45.00
13836;BME280;6988;52.614;13.500;2023-05-29T20:40:41;53866.06;;;-143.77;45.34
13836;BME280;6988;52.614;13.500;2023-05-29T20:45:34;53882.50;;;-143.77;46.76
13836;BME280;6988;52.614;13.500;2023-05-29T20:50:28;53864.03;;;-143.77;46.81
13836;BME280;6988;52.614;13.500;2023-05-29T20:55:20;53880.44;;;-143.77;47.65
13836;BME280;6988;52.614;13.500;2023-05-29T21:00:13;53896.84;;;-143.77;47.86
13836;BME280;6988;52.614;13.500;2023-05-29T21:05:05;53905.06;;;-143.77;48.78
13836;BME280;6988;52.614;13.500;2023-05-29T21:10:02;53921.47;;;-143.77;48.81
13836;BME280;6988;52.614;13.500;2023-05-29T21:14:54;53905.06;;;-143.77;49.88
13836;BME280;6988;52.614;13.500;2023-05-29T21:19:45;53909.16;;;-143.77;49.61
13836;BME280;6988;52.614;13.500;2023-05-29T21:24:37;53907.09;;;-143.77;48.36
13836;BME280;6988;52.614;13.500;2023-05-29T21:29:31;53907.09;;;-143.77;51.33
13836;BME280;6988;52.614;13.500;2023-05-29T21:34:22;53919.41;;;-143.77;50.67
13836;BME280;6988;52.614;13.500;2023-05-29T21:39:14;53950.19;;;-143.77;51.88
13836;BME280;6988;52.614;13.500;2023-05-29T21:44:07;53921.47;;;-143.77;52.03
13836;BME280;6988;52.614;13.500;2023-05-29T22:04:15;53941.97;;;-143.77;53.78
13836;BME280;6988;52.614;13.500;2023-05-29T22:09:08;53954.28;;;-143.77;53.18
13836;BME280;6988;52.614;13.500;2023-05-29T22:14:04;53948.13;;;-143.77;55.42
13836;BME280;6988;52.614;13.500;2023-05-29T22:18:56;53980.97;;;-143.77;56.08
13836;BME280;6988;52.614;13.500;2023-05-29T22:23:49;53978.91;;;-143.77;57.12
13836;BME280;6988;52.614;13.500;2023-05-29T22:28:41;53954.28;;;-143.77;56.80
13836;BME280;6988;52.614;13.500;2023-05-29T22:33:33;53946.09;;;-143.77;56.55
13836;BME280;6988;52.614;13.500;2023-05-29T22:38:25;53966.59;;;-143.77;57.31
13836;BME280;6988;52.614;13.500;2023-05-29T22:43:19;53966.59;;;-143.77;57.88
13836;BME280;6988;52.614;13.500;2023-05-29T22:48:12;53966.59;;;-143.77;55.14
13836;BME280;6988;52.614;13.500;2023-05-29T22:53:07;53978.91;;;-143.77;56.80
13836;BME280;6988;52.614;13.500;2023-05-29T22:57:59;54009.69;;;-143.77;57.95
13836;BME280;6988;52.614;13.500;2023-05-29T23:02:52;54009.69;;;-143.77;58.44
13836;BME280;6988;52.614;13.500;2023-05-29T23:07:44;54003.53;;;-143.77;59.13
13836;BME280;6988;52.614;13.500;2023-05-29T23:12:38;54015.84;;;-143.77;60.81
13836;BME280;6988;52.614;13.500;2023-05-29T23:17:30;54011.75;;;-143.77;61.14
13836;BME280;6988;52.614;13.500;2023-05-29T23:22:23;53995.31;;;-143.77;60.77
13836;BME280;6988;52.614;13.500;2023-05-29T23:27:15;54032.25;;;-143.77;60.84
13836;BME280;6988;52.614;13.500;2023-05-29T23:32:07;54028.16;;;-143.77;60.79
13836;BME280;6988;52.614;13.500;2023-05-29T23:36:59;54042.50;;;-143.77;58.64
13836;BME280;6988;52.614;13.500;2023-05-29T23:41:52;54083.56;;;-143.77;58.60
13836;BME280;6988;52.614;13.500;2023-05-29T23:46:44;54024.06;;;-143.77;59.30
13836;BME280;6988;52.614;13.500;2023-05-29T23:51:36;54030.22;;;-143.77;59.66
13836;BME280;6988;52.614;13.500;2023-05-29T23:56:28;54026.09;;;-143.77;61.39
